sensor_id;sensor_type;location;lat;lon;timestamp;P1;durP1;ratioP1;P2;durP2;ratioP2
72801;SDS011;61891;55.818;37.084;2023-10-31T00:01:45;8.68;;;4.93;;
72801;SDS011;61891;55.818;37.084;2023-10-31T00:04:10;8.65;;;4.60;;
72801;SDS011;61891;55.818;37.084;2023-10-31T00:06:36;8.82;;;4.75;;
72801;SDS011;61891;55.818;37.084;2023-10-31T00:09:02;9.30;;;5.55;;
72801;SDS011;61891;55.818;37.084;2023-10-31T00:11:28;6.90;;;4.78;;
72801;SDS011;61891;55.818;37.084;2023-10-31T00:13:54;9.68;;;4.85;;
72801;SDS011;61891;55.818;37.084;2023-10-31T00:16:20;11.30;;;5.45;;
72801;SDS011;61891;55.818;37.084;2023-10-31T00:18:45;12.48;;;5.30;;
72801;SDS011;61891;55.818;37.084;2023-10-31T00:21:11;11.48;;;5.57;;
72801;SDS011;61891;55.818;37.084;2023-10-31T00:23:47;10.15;;;5.07;;
72801;SDS011;61891;55.818;37.084;2023-10-31T00:26:14;8.07;;;5.03;;
72801;SDS011;61891;55.818;37.084;2023-10-31T00:28:47;8.40;;;4.82;;
72801;SDS011;61891;55.818;37.084;2023-10-31T00:31:13;8.00;;;4.20;;
72801;SDS011;61891;55.818;37.084;2023-10-31T00:36:05;6.47;;;4.40;;
72801;SDS011;61891;55.818;37.084;2023-10-31T00:38:33;7.50;;;4.55;;
72801;SDS011;61891;55.818;37.084;2023-10-31T00:40:59;7.07;;;4.38;;
72801;SDS011;61891;55.818;37.084;2023-10-31T00:43:25;7.55;;;4.75;;
72801;SDS011;61891;55.818;37.084;2023-10-31T00:45:51;7.93;;;5.25;;
72801;SDS011;61891;55.818;37.084;2023-10-31T00:48:17;6.40;;;4.60;;
72801;SDS011;61891;55.818;37.084;2023-10-31T00:50:44;7.95;;;5.15;;
72801;SDS011;61891;55.818;37.084;2023-10-31T00:53:10;7.13;;;4.55;;
72801;SDS011;61891;55.818;37.084;2023-10-31T00:55:36;9.48;;;4.90;;
72801;SDS011;61891;55.818;37.084;2023-10-31T00:58:03;6.88;;;4.47;;
72801;SDS011;61891;55.818;37.084;2023-10-31T01:00:28;8.32;;;4.70;;
72801;SDS011;61891;55.818;37.084;2023-10-31T01:02:55;14.82;;;6.07;;
72801;SDS011;61891;55.818;37.084;2023-10-31T01:05:21;14.88;;;6.85;;
72801;SDS011;61891;55.818;37.084;2023-10-31T01:07:47;9.40;;;5.18;;
72801;SDS011;61891;55.818;37.084;2023-10-31T01:10:13;13.30;;;6.50;;
72801;SDS011;61891;55.818;37.084;2023-10-31T01:12:39;23.65;;;7.80;;
72801;SDS011;61891;55.818;37.084;2023-10-31T01:15:05;22.77;;;8.40;;
72801;SDS011;61891;55.818;37.084;2023-10-31T01:17:32;14.98;;;5.90;;
72801;SDS011;61891;55.818;37.084;2023-10-31T01:19:57;12.00;;;6.47;;
72801;SDS011;61891;55.818;37.084;2023-10-31T01:22:23;11.63;;;5.65;;
72801;SDS011;61891;55.818;37.084;2023-10-31T01:24:49;9.95;;;5.22;;
72801;SDS011;61891;55.818;37.084;2023-10-31T01:27:15;11.65;;;5.30;;
72801;SDS011;61891;55.818;37.084;2023-10-31T01:29:41;7.40;;;4.97;;
72801;SDS011;61891;55.818;37.084;2023-10-31T01:32:07;8.45;;;4.70;;
72801;SDS011;61891;55.818;37.084;2023-10-31T01:34:33;10.45;;;5.85;;
72801;SDS011;61891;55.818;37.084;2023-10-31T01:36:59;9.43;;;5.10;;
72801;SDS011;61891;55.818;37.084;2023-10-31T01:39:26;7.75;;;4.72;;
72801;SDS011;61891;55.818;37.084;2023-10-31T01:41:52;8.32;;;4.93;;
72801;SDS011;61891;55.818;37.084;2023-10-31T01:44:20;7.93;;;4.93;;
72801;SDS011;61891;55.818;37.084;2023-10-31T01:46:46;9.45;;;5.03;;
72801;SDS011;61891;55.818;37.084;2023-10-31T01:49:13;7.93;;;4.53;;
72801;SDS011;61891;55.818;37.084;2023-10-31T01:51:40;6.80;;;4.18;;
72801;SDS011;61891;55.818;37.084;2023-10-31T01:54:08;8.27;;;5.28;;
72801;SDS011;61891;55.818;37.084;2023-10-31T01:56:35;8.07;;;4.72;;
72801;SDS011;61891;55.818;37.084;2023-10-31T01:59:04;8.95;;;5.15;;
72801;SDS011;61891;55.818;37.084;2023-10-31T02:01:40;7.40;;;4.97;;
72801;SDS011;61891;55.818;37.084;2023-10-31T02:04:07;8.00;;;5.03;;
72801;SDS011;61891;55.818;37.084;2023-10-31T02:06:33;8.60;;;5.00;;
72801;SDS011;61891;55.818;37.084;2023-10-31T02:08:59;7.93;;;5.25;;
72801;SDS011;61891;55.818;37.084;2023-10-31T02:11:24;8.07;;;5.45;;
72801;SDS011;61891;55.818;37.084;2023-10-31T02:13:50;9.00;;;5.20;;
72801;SDS011;61891;55.818;37.084;2023-10-31T02:16:16;8.55;;;5.07;;
72801;SDS011;61891;55.818;37.084;2023-10-31T02:18:42;7.55;;;4.80;;
72801;SDS011;61891;55.818;37.084;2023-10-31T02:21:08;7.60;;;5.15;;
72801;SDS011;61891;55.818;37.084;2023-10-31T02:23:34;7.78;;;5.18;;
72801;SDS011;61891;55.818;37.084;2023-10-31T02:26:01;9.38;;;4.97;;
72801;SDS011;61891;55.818;37.084;2023-10-31T02:28:29;7.78;;;4.90;;
72801;SDS011;61891;55.818;37.084;2023-10-31T02:30:56;7.28;;;4.55;;
72801;SDS011;61891;55.818;37.084;2023-10-31T02:33:23;8.85;;;4.97;;
72801;SDS011;61891;55.818;37.084;2023-10-31T02:35:49;7.88;;;4.72;;
72801;SDS011;61891;55.818;37.084;2023-10-31T02:38:15;6.25;;;4.22;;
72801;SDS011;61891;55.818;37.084;2023-10-31T02:40:41;8.13;;;5.35;;
72801;SDS011;61891;55.818;37.084;2023-10-31T02:43:06;12.65;;;6.32;;
72801;SDS011;61891;55.818;37.084;2023-10-31T02:45:32;9.35;;;4.82;;
72801;SDS011;61891;55.818;37.084;2023-10-31T02:48:00;6.78;;;4.10;;
72801;SDS011;61891;55.818;37.084;2023-10-31T02:50:26;8.60;;;5.43;;
72801;SDS011;61891;55.818;37.084;2023-10-31T02:52:53;8.43;;;5.20;;
72801;SDS011;61891;55.818;37.084;2023-10-31T02:55:19;16.70;;;10.18;;
72801;SDS011;61891;55.818;37.084;2023-10-31T02:57:45;20.85;;;13.55;;
72801;SDS011;61891;55.818;37.084;2023-10-31T03:00:11;26.70;;;16.27;;
72801;SDS011;61891;55.818;37.084;2023-10-31T03:02:38;23.60;;;13.85;;
72801;SDS011;61891;55.818;37.084;2023-10-31T03:05:03;24.45;;;14.75;;
72801;SDS011;61891;55.818;37.084;2023-10-31T03:07:31;24.15;;;14.70;;
72801;SDS011;61891;55.818;37.084;2023-10-31T03:12:23;25.25;;;16.00;;
72801;SDS011;61891;55.818;37.084;2023-10-31T03:14:50;23.10;;;13.73;;
72801;SDS011;61891;55.818;37.084;2023-10-31T03:17:16;17.05;;;11.95;;
72801;SDS011;61891;55.818;37.084;2023-10-31T03:19:44;25.63;;;14.70;;
72801;SDS011;61891;55.818;37.084;2023-10-31T03:22:10;14.95;;;10.27;;
72801;SDS011;61891;55.818;37.084;2023-10-31T03:24:37;17.67;;;11.27;;
72801;SDS011;61891;55.818;37.084;2023-10-31T03:27:02;20.42;;;12.65;;
72801;SDS011;61891;55.818;37.084;2023-10-31T03:29:30;20.27;;;13.35;;
72801;SDS011;61891;55.818;37.084;2023-10-31T03:31:56;15.00;;;10.43;;
72801;SDS011;61891;55.818;37.084;2023-10-31T03:34:25;13.10;;;8.55;;
72801;SDS011;61891;55.818;37.084;2023-10-31T03:36:51;13.68;;;8.93;;
72801;SDS011;61891;55.818;37.084;2023-10-31T03:39:17;16.70;;;11.00;;
72801;SDS011;61891;55.818;37.084;2023-10-31T03:41:43;16.55;;;9.07;;
72801;SDS011;61891;55.818;37.084;2023-10-31T03:44:12;15.20;;;8.82;;
72801;SDS011;61891;55.818;37.084;2023-10-31T03:46:38;12.77;;;8.13;;
72801;SDS011;61891;55.818;37.084;2023-10-31T03:49:03;11.10;;;7.07;;
72801;SDS011;61891;55.818;37.084;2023-10-31T03:51:30;9.82;;;6.78;;
72801;SDS011;61891;55.818;37.084;2023-10-31T03:53:56;12.13;;;7.28;;
72801;SDS011;61891;55.818;37.084;2023-10-31T03:56:22;13.52;;;7.47;;
72801;SDS011;61891;55.818;37.084;2023-10-31T03:58:48;12.10;;;7.03;;
72801;SDS011;61891;55.818;37.084;2023-10-31T04:01:13;10.75;;;6.97;;
72801;SDS011;61891;55.818;37.084;2023-10-31T04:03:39;11.70;;;6.53;;
72801;SDS011;61891;55.818;37.084;2023-10-31T04:06:05;8.88;;;5.93;;
72801;SDS011;61891;55.818;37.084;2023-10-31T04:08:31;10.13;;;5.85;;
72801;SDS011;61891;55.818;37.084;2023-10-31T04:10:57;10.82;;;6.53;;
72801;SDS011;61891;55.818;37.084;2023-10-31T04:13:22;9.65;;;5.97;;
72801;SDS011;61891;55.818;37.084;2023-10-31T04:15:48;10.07;;;5.63;;
72801;SDS011;61891;55.818;37.084;2023-10-31T04:18:14;8.65;;;5.18;;
72801;SDS011;61891;55.818;37.084;2023-10-31T04:20:40;9.27;;;5.07;;
72801;SDS011;61891;55.818;37.084;2023-10-31T04:23:06;9.10;;;6.05;;
72801;SDS011;61891;55.818;37.084;2023-10-31T04:25:33;9.25;;;5.65;;
72801;SDS011;61891;55.818;37.084;2023-10-31T04:27:59;10.48;;;5.88;;
72801;SDS011;61891;55.818;37.084;2023-10-31T04:30:25;11.60;;;7.97;;
72801;SDS011;61891;55.818;37.084;2023-10-31T04:32:51;11.57;;;6.47;;
72801;SDS011;61891;55.818;37.084;2023-10-31T04:35:17;11.10;;;6.85;;
72801;SDS011;61891;55.818;37.084;2023-10-31T04:37:43;11.88;;;8.27;;
72801;SDS011;61891;55.818;37.084;2023-10-31T04:40:09;9.90;;;6.30;;
72801;SDS011;61891;55.818;37.084;2023-10-31T04:42:35;12.18;;;7.88;;
72801;SDS011;61891;55.818;37.084;2023-10-31T04:45:03;12.23;;;7.90;;
72801;SDS011;61891;55.818;37.084;2023-10-31T04:47:32;10.63;;;7.47;;
72801;SDS011;61891;55.818;37.084;2023-10-31T04:49:58;13.68;;;8.63;;
72801;SDS011;61891;55.818;37.084;2023-10-31T04:52:24;13.85;;;8.63;;
72801;SDS011;61891;55.818;37.084;2023-10-31T04:54:51;13.77;;;9.50;;
72801;SDS011;61891;55.818;37.084;2023-10-31T04:57:17;12.55;;;9.20;;
72801;SDS011;61891;55.818;37.084;2023-10-31T04:59:43;14.35;;;8.38;;
72801;SDS011;61891;55.818;37.084;2023-10-31T05:02:09;14.02;;;8.52;;
72801;SDS011;61891;55.818;37.084;2023-10-31T05:04:38;8.95;;;6.10;;
72801;SDS011;61891;55.818;37.084;2023-10-31T05:07:05;13.05;;;10.00;;
72801;SDS011;61891;55.818;37.084;2023-10-31T05:09:30;8.70;;;6.28;;
72801;SDS011;61891;55.818;37.084;2023-10-31T05:11:56;9.25;;;6.45;;
72801;SDS011;61891;55.818;37.084;2023-10-31T05:14:22;10.25;;;6.18;;
72801;SDS011;61891;55.818;37.084;2023-10-31T05:16:47;11.65;;;8.27;;
72801;SDS011;61891;55.818;37.084;2023-10-31T05:19:13;13.57;;;7.70;;
72801;SDS011;61891;55.818;37.084;2023-10-31T05:21:39;11.23;;;7.13;;
72801;SDS011;61891;55.818;37.084;2023-10-31T05:24:05;11.70;;;7.43;;
72801;SDS011;61891;55.818;37.084;2023-10-31T05:26:34;15.35;;;7.88;;
72801;SDS011;61891;55.818;37.084;2023-10-31T05:29:00;12.02;;;7.28;;
72801;SDS011;61891;55.818;37.084;2023-10-31T05:31:26;12.68;;;9.52;;
72801;SDS011;61891;55.818;37.084;2023-10-31T05:33:52;10.63;;;6.90;;
72801;SDS011;61891;55.818;37.084;2023-10-31T05:36:19;8.75;;;6.03;;
72801;SDS011;61891;55.818;37.084;2023-10-31T05:38:49;9.02;;;5.97;;
72801;SDS011;61891;55.818;37.084;2023-10-31T05:41:15;7.90;;;5.25;;
72801;SDS011;61891;55.818;37.084;2023-10-31T05:43:41;7.35;;;5.45;;
72801;SDS011;61891;55.818;37.084;2023-10-31T05:46:07;9.75;;;5.90;;
72801;SDS011;61891;55.818;37.084;2023-10-31T05:48:39;8.52;;;6.28;;
72801;SDS011;61891;55.818;37.084;2023-10-31T05:51:13;13.88;;;8.88;;
72801;SDS011;61891;55.818;37.084;2023-10-31T05:53:40;15.75;;;9.52;;
72801;SDS011;61891;55.818;37.084;2023-10-31T05:56:07;16.42;;;10.15;;
72801;SDS011;61891;55.818;37.084;2023-10-31T05:58:34;24.58;;;14.70;;
72801;SDS011;61891;55.818;37.084;2023-10-31T06:01:00;18.05;;;11.60;;
72801;SDS011;61891;55.818;37.084;2023-10-31T06:03:26;11.25;;;8.23;;
72801;SDS011;61891;55.818;37.084;2023-10-31T06:05:52;13.27;;;8.60;;
72801;SDS011;61891;55.818;37.084;2023-10-31T06:08:17;13.90;;;8.63;;
72801;SDS011;61891;55.818;37.084;2023-10-31T06:10:43;14.57;;;8.35;;
72801;SDS011;61891;55.818;37.084;2023-10-31T06:13:09;16.73;;;9.73;;
72801;SDS011;61891;55.818;37.084;2023-10-31T06:15:35;15.35;;;8.43;;
72801;SDS011;61891;55.818;37.084;2023-10-31T06:18:00;14.05;;;7.90;;
72801;SDS011;61891;55.818;37.084;2023-10-31T06:20:26;14.82;;;8.80;;
72801;SDS011;61891;55.818;37.084;2023-10-31T06:22:52;13.77;;;8.60;;
72801;SDS011;61891;55.818;37.084;2023-10-31T06:25:18;13.88;;;8.75;;
72801;SDS011;61891;55.818;37.084;2023-10-31T06:27:43;37.55;;;21.55;;
72801;SDS011;61891;55.818;37.084;2023-10-31T06:30:09;24.55;;;13.93;;
72801;SDS011;61891;55.818;37.084;2023-10-31T06:32:35;16.40;;;9.15;;
72801;SDS011;61891;55.818;37.084;2023-10-31T06:35:02;13.32;;;8.55;;
72801;SDS011;61891;55.818;37.084;2023-10-31T06:37:29;14.52;;;8.90;;
72801;SDS011;61891;55.818;37.084;2023-10-31T06:39:54;16.88;;;10.57;;
72801;SDS011;61891;55.818;37.084;2023-10-31T06:42:20;20.42;;;12.25;;
72801;SDS011;61891;55.818;37.084;2023-10-31T06:44:46;21.58;;;12.20;;
72801;SDS011;61891;55.818;37.084;2023-10-31T06:47:11;34.90;;;20.15;;
72801;SDS011;61891;55.818;37.084;2023-10-31T06:49:37;30.63;;;17.67;;
72801;SDS011;61891;55.818;37.084;2023-10-31T06:52:03;20.02;;;11.35;;
72801;SDS011;61891;55.818;37.084;2023-10-31T06:54:29;25.70;;;16.20;;
72801;SDS011;61891;55.818;37.084;2023-10-31T06:56:56;16.98;;;9.70;;
72801;SDS011;61891;55.818;37.084;2023-10-31T06:59:23;17.83;;;11.30;;
72801;SDS011;61891;55.818;37.084;2023-10-31T07:01:48;20.02;;;12.75;;
72801;SDS011;61891;55.818;37.084;2023-10-31T07:04:14;19.50;;;12.60;;
72801;SDS011;61891;55.818;37.084;2023-10-31T07:06:42;22.15;;;13.18;;
72801;SDS011;61891;55.818;37.084;2023-10-31T07:09:07;22.75;;;13.00;;
72801;SDS011;61891;55.818;37.084;2023-10-31T07:11:34;21.45;;;12.35;;
72801;SDS011;61891;55.818;37.084;2023-10-31T07:14:01;18.95;;;11.50;;
72801;SDS011;61891;55.818;37.084;2023-10-31T07:16:27;23.75;;;14.32;;
72801;SDS011;61891;55.818;37.084;2023-10-31T07:18:54;20.88;;;13.65;;
72801;SDS011;61891;55.818;37.084;2023-10-31T07:21:20;24.15;;;14.55;;
72801;SDS011;61891;55.818;37.084;2023-10-31T07:23:46;14.80;;;10.65;;
72801;SDS011;61891;55.818;37.084;2023-10-31T07:26:12;16.40;;;11.20;;
72801;SDS011;61891;55.818;37.084;2023-10-31T07:28:37;17.88;;;11.68;;
72801;SDS011;61891;55.818;37.084;2023-10-31T07:31:04;18.33;;;11.82;;
72801;SDS011;61891;55.818;37.084;2023-10-31T07:33:30;15.30;;;11.23;;
72801;SDS011;61891;55.818;37.084;2023-10-31T07:35:55;16.95;;;10.00;;
72801;SDS011;61891;55.818;37.084;2023-10-31T07:38:21;11.02;;;7.82;;
72801;SDS011;61891;55.818;37.084;2023-10-31T07:40:47;14.15;;;8.75;;
72801;SDS011;61891;55.818;37.084;2023-10-31T07:43:15;14.82;;;8.80;;
72801;SDS011;61891;55.818;37.084;2023-10-31T07:45:41;17.10;;;10.10;;
72801;SDS011;61891;55.818;37.084;2023-10-31T07:48:08;14.18;;;8.32;;
72801;SDS011;61891;55.818;37.084;2023-10-31T07:50:34;12.55;;;8.65;;
72801;SDS011;61891;55.818;37.084;2023-10-31T07:53:00;10.38;;;7.38;;
72801;SDS011;61891;55.818;37.084;2023-10-31T07:55:26;13.70;;;6.53;;
72801;SDS011;61891;55.818;37.084;2023-10-31T07:57:51;14.80;;;8.68;;
72801;SDS011;61891;55.818;37.084;2023-10-31T08:00:18;27.38;;;10.90;;
72801;SDS011;61891;55.818;37.084;2023-10-31T08:02:44;24.83;;;9.88;;
72801;SDS011;61891;55.818;37.084;2023-10-31T08:05:11;19.05;;;7.53;;
72801;SDS011;61891;55.818;37.084;2023-10-31T08:07:36;9.80;;;6.18;;
72801;SDS011;61891;55.818;37.084;2023-10-31T08:10:02;8.57;;;5.75;;
72801;SDS011;61891;55.818;37.084;2023-10-31T08:12:29;9.93;;;5.50;;
72801;SDS011;61891;55.818;37.084;2023-10-31T08:14:55;7.78;;;5.35;;
72801;SDS011;61891;55.818;37.084;2023-10-31T08:17:21;7.80;;;5.20;;
72801;SDS011;61891;55.818;37.084;2023-10-31T08:19:47;6.63;;;4.55;;
72801;SDS011;61891;55.818;37.084;2023-10-31T08:22:39;5.88;;;4.45;;
72801;SDS011;61891;55.818;37.084;2023-10-31T08:25:08;7.32;;;4.50;;
72801;SDS011;61891;55.818;37.084;2023-10-31T08:27:34;5.32;;;4.20;;
72801;SDS011;61891;55.818;37.084;2023-10-31T08:30:00;6.18;;;3.83;;
72801;SDS011;61891;55.818;37.084;2023-10-31T08:32:26;5.93;;;4.22;;
72801;SDS011;61891;55.818;37.084;2023-10-31T08:34:52;4.60;;;3.65;;
72801;SDS011;61891;55.818;37.084;2023-10-31T08:37:19;4.75;;;3.53;;
72801;SDS011;61891;55.818;37.084;2023-10-31T08:39:45;3.47;;;3.10;;
72801;SDS011;61891;55.818;37.084;2023-10-31T08:42:11;4.15;;;2.50;;
72801;SDS011;61891;55.818;37.084;2023-10-31T08:44:36;5.88;;;3.42;;
72801;SDS011;61891;55.818;37.084;2023-10-31T08:47:05;4.82;;;2.90;;
72801;SDS011;61891;55.818;37.084;2023-10-31T08:49:31;4.22;;;3.13;;
72801;SDS011;61891;55.818;37.084;2023-10-31T08:51:57;3.95;;;2.38;;
72801;SDS011;61891;55.818;37.084;2023-10-31T08:54:23;4.05;;;2.53;;
72801;SDS011;61891;55.818;37.084;2023-10-31T08:56:49;5.05;;;3.25;;
72801;SDS011;61891;55.818;37.084;2023-10-31T08:59:16;4.65;;;3.40;;
72801;SDS011;61891;55.818;37.084;2023-10-31T09:01:41;5.28;;;3.15;;
72801;SDS011;61891;55.818;37.084;2023-10-31T09:04:08;5.20;;;4.00;;
72801;SDS011;61891;55.818;37.084;2023-10-31T09:06:34;7.68;;;3.70;;
72801;SDS011;61891;55.818;37.084;2023-10-31T09:09:01;7.00;;;4.10;;
72801;SDS011;61891;55.818;37.084;2023-10-31T09:11:29;7.07;;;4.90;;
72801;SDS011;61891;55.818;37.084;2023-10-31T09:13:55;9.73;;;5.13;;
72801;SDS011;61891;55.818;37.084;2023-10-31T09:16:23;5.50;;;3.85;;
72801;SDS011;61891;55.818;37.084;2023-10-31T09:18:49;8.63;;;3.67;;
72801;SDS011;61891;55.818;37.084;2023-10-31T09:21:15;5.85;;;3.97;;
72801;SDS011;61891;55.818;37.084;2023-10-31T09:23:41;7.95;;;4.90;;
72801;SDS011;61891;55.818;37.084;2023-10-31T09:26:07;5.40;;;4.05;;
72801;SDS011;61891;55.818;37.084;2023-10-31T09:28:33;8.27;;;5.40;;
72801;SDS011;61891;55.818;37.084;2023-10-31T09:30:58;7.28;;;4.50;;
72801;SDS011;61891;55.818;37.084;2023-10-31T09:33:26;5.90;;;4.15;;
72801;SDS011;61891;55.818;37.084;2023-10-31T09:35:52;7.18;;;4.10;;
72801;SDS011;61891;55.818;37.084;2023-10-31T09:38:17;8.27;;;4.85;;
72801;SDS011;61891;55.818;37.084;2023-10-31T09:40:43;6.68;;;4.70;;
72801;SDS011;61891;55.818;37.084;2023-10-31T09:43:09;10.15;;;4.78;;
72801;SDS011;61891;55.818;37.084;2023-10-31T09:45:35;8.57;;;4.78;;
72801;SDS011;61891;55.818;37.084;2023-10-31T09:48:01;3.75;;;2.90;;
72801;SDS011;61891;55.818;37.084;2023-10-31T09:50:28;2.90;;;2.47;;
72801;SDS011;61891;55.818;37.084;2023-10-31T09:52:56;3.63;;;2.80;;
72801;SDS011;61891;55.818;37.084;2023-10-31T09:55:22;3.70;;;2.22;;
72801;SDS011;61891;55.818;37.084;2023-10-31T09:57:48;4.47;;;2.72;;
72801;SDS011;61891;55.818;37.084;2023-10-31T10:00:14;3.88;;;2.90;;
72801;SDS011;61891;55.818;37.084;2023-10-31T10:02:40;6.63;;;4.57;;
72801;SDS011;61891;55.818;37.084;2023-10-31T10:05:08;8.25;;;4.70;;
72801;SDS011;61891;55.818;37.084;2023-10-31T10:07:35;7.35;;;5.05;;
72801;SDS011;61891;55.818;37.084;2023-10-31T10:10:01;7.53;;;4.90;;
72801;SDS011;61891;55.818;37.084;2023-10-31T10:12:31;6.03;;;4.68;;
72801;SDS011;61891;55.818;37.084;2023-10-31T10:14:57;4.70;;;3.35;;
72801;SDS011;61891;55.818;37.084;2023-10-31T10:17:24;8.93;;;4.68;;
72801;SDS011;61891;55.818;37.084;2023-10-31T10:22:45;5.80;;;3.78;;
72801;SDS011;61891;55.818;37.084;2023-10-31T10:25:27;8.15;;;4.93;;
72801;SDS011;61891;55.818;37.084;2023-10-31T10:35:18;7.03;;;4.88;;
72801;SDS011;61891;55.818;37.084;2023-10-31T10:42:09;4.75;;;2.92;;
72801;SDS011;61891;55.818;37.084;2023-10-31T10:45:42;4.47;;;3.65;;
72801;SDS011;61891;55.818;37.084;2023-10-31T10:48:12;3.30;;;2.40;;
72801;SDS011;61891;55.818;37.084;2023-10-31T10:50:45;5.20;;;3.22;;
72801;SDS011;61891;55.818;37.084;2023-10-31T10:53:23;4.68;;;3.35;;
72801;SDS011;61891;55.818;37.084;2023-10-31T10:56:07;5.35;;;3.78;;
72801;SDS011;61891;55.818;37.084;2023-10-31T10:59:01;4.68;;;3.15;;
72801;SDS011;61891;55.818;37.084;2023-10-31T11:01:32;4.72;;;3.28;;
72801;SDS011;61891;55.818;37.084;2023-10-31T11:04:00;6.63;;;3.75;;
72801;SDS011;61891;55.818;37.084;2023-10-31T11:06:26;7.55;;;3.90;;
72801;SDS011;61891;55.818;37.084;2023-10-31T11:08:52;5.72;;;3.67;;
72801;SDS011;61891;55.818;37.084;2023-10-31T11:11:20;4.35;;;3.15;;
72801;SDS011;61891;55.818;37.084;2023-10-31T11:13:49;3.55;;;3.10;;
72801;SDS011;61891;55.818;37.084;2023-10-31T11:16:24;6.75;;;3.97;;
72801;SDS011;61891;55.818;37.084;2023-10-31T11:18:55;4.43;;;3.40;;
72801;SDS011;61891;55.818;37.084;2023-10-31T11:21:22;3.35;;;2.42;;
72801;SDS011;61891;55.818;37.084;2023-10-31T11:23:58;5.50;;;3.10;;
72801;SDS011;61891;55.818;37.084;2023-10-31T11:26:25;4.45;;;2.50;;
72801;SDS011;61891;55.818;37.084;2023-10-31T11:28:51;5.15;;;3.05;;
72801;SDS011;61891;55.818;37.084;2023-10-31T11:31:17;7.28;;;4.30;;
72801;SDS011;61891;55.818;37.084;2023-10-31T11:33:44;4.22;;;2.60;;
72801;SDS011;61891;55.818;37.084;2023-10-31T11:36:12;4.53;;;2.97;;
72801;SDS011;61891;55.818;37.084;2023-10-31T11:38:38;4.45;;;2.92;;
72801;SDS011;61891;55.818;37.084;2023-10-31T11:41:04;3.55;;;2.70;;
72801;SDS011;61891;55.818;37.084;2023-10-31T11:43:50;5.18;;;3.50;;
72801;SDS011;61891;55.818;37.084;2023-10-31T11:46:18;3.60;;;2.95;;
72801;SDS011;61891;55.818;37.084;2023-10-31T11:48:47;7.32;;;3.50;;
72801;SDS011;61891;55.818;37.084;2023-10-31T11:51:15;4.68;;;3.20;;
72801;SDS011;61891;55.818;37.084;2023-10-31T11:53:41;5.05;;;3.35;;
72801;SDS011;61891;55.818;37.084;2023-10-31T11:56:18;6.53;;;3.10;;
72801;SDS011;61891;55.818;37.084;2023-10-31T11:58:54;4.20;;;3.38;;
72801;SDS011;61891;55.818;37.084;2023-10-31T12:03:49;4.75;;;3.35;;
72801;SDS011;61891;55.818;37.084;2023-10-31T12:06:17;4.20;;;2.60;;
72801;SDS011;61891;55.818;37.084;2023-10-31T12:08:46;3.28;;;2.97;;
72801;SDS011;61891;55.818;37.084;2023-10-31T12:11:14;5.28;;;3.42;;
72801;SDS011;61891;55.818;37.084;2023-10-31T12:13:42;4.72;;;3.60;;
72801;SDS011;61891;55.818;37.084;2023-10-31T12:16:17;4.55;;;3.60;;
72801;SDS011;61891;55.818;37.084;2023-10-31T12:18:43;7.13;;;3.60;;
72801;SDS011;61891;55.818;37.084;2023-10-31T12:21:09;4.05;;;3.60;;
72801;SDS011;61891;55.818;37.084;2023-10-31T12:23:39;5.60;;;3.47;;
72801;SDS011;61891;55.818;37.084;2023-10-31T12:26:06;5.60;;;3.85;;
72801;SDS011;61891;55.818;37.084;2023-10-31T12:28:31;7.03;;;5.55;;
72801;SDS011;61891;55.818;37.084;2023-10-31T12:30:57;8.13;;;5.82;;
72801;SDS011;61891;55.818;37.084;2023-10-31T12:35:55;5.95;;;3.45;;
72801;SDS011;61891;55.818;37.084;2023-10-31T12:38:22;4.95;;;4.00;;
72801;SDS011;61891;55.818;37.084;2023-10-31T12:40:49;4.95;;;3.80;;
72801;SDS011;61891;55.818;37.084;2023-10-31T12:43:16;5.32;;;4.53;;
72801;SDS011;61891;55.818;37.084;2023-10-31T12:45:42;6.55;;;4.40;;
72801;SDS011;61891;55.818;37.084;2023-10-31T12:48:11;18.48;;;12.65;;
72801;SDS011;61891;55.818;37.084;2023-10-31T12:50:37;11.05;;;7.05;;
72801;SDS011;61891;55.818;37.084;2023-10-31T12:53:05;7.05;;;4.93;;
72801;SDS011;61891;55.818;37.084;2023-10-31T12:55:41;8.73;;;5.35;;
72801;SDS011;61891;55.818;37.084;2023-10-31T12:58:08;8.02;;;6.05;;
72801;SDS011;61891;55.818;37.084;2023-10-31T13:00:36;6.75;;;5.55;;
72801;SDS011;61891;55.818;37.084;2023-10-31T13:03:06;10.70;;;6.75;;
72801;SDS011;61891;55.818;37.084;2023-10-31T13:05:33;9.95;;;6.07;;
72801;SDS011;61891;55.818;37.084;2023-10-31T13:08:00;11.60;;;7.65;;
72801;SDS011;61891;55.818;37.084;2023-10-31T13:10:32;10.80;;;7.68;;
72801;SDS011;61891;55.818;37.084;2023-10-31T13:12:58;11.20;;;7.45;;
72801;SDS011;61891;55.818;37.084;2023-10-31T13:15:25;12.65;;;7.93;;
72801;SDS011;61891;55.818;37.084;2023-10-31T13:17:51;11.30;;;7.60;;
72801;SDS011;61891;55.818;37.084;2023-10-31T13:20:17;14.38;;;8.73;;
72801;SDS011;61891;55.818;37.084;2023-10-31T13:22:44;13.38;;;8.65;;
72801;SDS011;61891;55.818;37.084;2023-10-31T13:25:11;11.10;;;6.97;;
72801;SDS011;61891;55.818;37.084;2023-10-31T13:27:39;10.88;;;5.45;;
72801;SDS011;61891;55.818;37.084;2023-10-31T13:30:07;11.93;;;6.60;;
72801;SDS011;61891;55.818;37.084;2023-10-31T13:32:33;9.68;;;6.10;;
72801;SDS011;61891;55.818;37.084;2023-10-31T13:35:01;12.10;;;7.00;;
72801;SDS011;61891;55.818;37.084;2023-10-31T13:37:29;11.52;;;6.53;;
72801;SDS011;61891;55.818;37.084;2023-10-31T13:39:55;10.90;;;7.10;;
72801;SDS011;61891;55.818;37.084;2023-10-31T13:42:21;11.57;;;7.88;;
72801;SDS011;61891;55.818;37.084;2023-10-31T13:44:47;10.43;;;6.53;;
72801;SDS011;61891;55.818;37.084;2023-10-31T13:47:14;11.98;;;6.60;;
72801;SDS011;61891;55.818;37.084;2023-10-31T13:49:40;11.27;;;6.47;;
72801;SDS011;61891;55.818;37.084;2023-10-31T13:52:06;11.60;;;5.95;;
72801;SDS011;61891;55.818;37.084;2023-10-31T13:54:32;14.02;;;7.97;;
72801;SDS011;61891;55.818;37.084;2023-10-31T13:56:58;12.52;;;7.97;;
72801;SDS011;61891;55.818;37.084;2023-10-31T13:59:25;8.45;;;5.60;;
72801;SDS011;61891;55.818;37.084;2023-10-31T14:01:51;12.57;;;7.32;;
72801;SDS011;61891;55.818;37.084;2023-10-31T14:04:18;12.50;;;7.53;;
72801;SDS011;61891;55.818;37.084;2023-10-31T14:06:44;14.80;;;8.60;;
72801;SDS011;61891;55.818;37.084;2023-10-31T14:11:37;13.88;;;7.70;;
72801;SDS011;61891;55.818;37.084;2023-10-31T14:14:07;14.07;;;8.40;;
72801;SDS011;61891;55.818;37.084;2023-10-31T14:16:36;14.10;;;7.95;;
72801;SDS011;61891;55.818;37.084;2023-10-31T14:19:04;13.48;;;7.82;;
72801;SDS011;61891;55.818;37.084;2023-10-31T14:21:31;16.48;;;9.20;;
72801;SDS011;61891;55.818;37.084;2023-10-31T14:26:23;15.80;;;9.07;;
72801;SDS011;61891;55.818;37.084;2023-10-31T14:28:49;14.90;;;8.48;;
72801;SDS011;61891;55.818;37.084;2023-10-31T14:31:16;16.75;;;8.48;;
72801;SDS011;61891;55.818;37.084;2023-10-31T14:33:42;14.50;;;7.85;;
72801;SDS011;61891;55.818;37.084;2023-10-31T14:36:09;25.63;;;13.13;;
72801;SDS011;61891;55.818;37.084;2023-10-31T14:38:37;20.98;;;10.35;;
72801;SDS011;61891;55.818;37.084;2023-10-31T14:41:03;20.10;;;9.68;;
72801;SDS011;61891;55.818;37.084;2023-10-31T14:43:29;19.92;;;9.95;;
72801;SDS011;61891;55.818;37.084;2023-10-31T14:45:56;23.00;;;11.32;;
72801;SDS011;61891;55.818;37.084;2023-10-31T14:48:22;27.70;;;12.75;;
72801;SDS011;61891;55.818;37.084;2023-10-31T14:50:52;28.02;;;12.75;;
72801;SDS011;61891;55.818;37.084;2023-10-31T14:53:18;22.02;;;10.65;;
72801;SDS011;61891;55.818;37.084;2023-10-31T14:55:47;25.38;;;12.40;;